Nearby METAR Reports

 

KHAO - Hamilton, Ohio, USA
Distance from station: NW 8mi, 14km
Updated: 04/24/2019 3:53pm
Few Clouds
Few Clouds
 Wind from E
Wind: E 6 mph , 9 km/h
Temperature: 63°F , 17°C
Dew Point: 45°F , 7°C
Humidity: 52%
Barometer: 29.94 inHg , 1013.9 hPa
Clouds: Few Clouds
Visibility: 10 miles , 16 km
Cloud details: Few Clouds 4200 ft
2019/04/24 19:53 KHAO 241953Z AUTO 10005KT 10SM FEW042 17/07 A2994 RMK AO2 RAB11E42 SLP138 P0000 T01720067
KMWO - Middletown/Hook, Ohio, USA
Distance from station: N 17mi, 27km
Updated: 04/24/2019 3:55pm
Mostly cloudy
Mostly cloudy
 Wind from NNE
Wind: NNE 3 mph , 6 km/h
Temperature: 63°F , 17°C
Dew Point: 41°F , 5°C
Humidity: 45%
Barometer: 29.95 inHg , 1014.2 hPa
Clouds: Mostly cloudy
Visibility: 10 miles , 16 km
Cloud details: Partly cloudy 3200 ft
Mostly cloudy 4300 ft
2019/04/24 19:55 KMWO 241955Z AUTO 03003KT 10SM SCT032 BKN043 17/05 A2995 RMK AO2 T01670051
KCVG - Covington, Kentucky, USA
Distance from station: SW 22mi, 35km
Updated: 04/24/2019 3:52pm
Overcast
Overcast
 Wind from SE
Wind: SE 12 mph , 19 km/h
Temperature: 66°F , 19°C
Dew Point: 50°F , 10°C
Humidity: 56%
Barometer: 29.90 inHg , 1012.5 hPa
Clouds: Overcast
Visibility: 10 miles , 16 km
Cloud details: Few Clouds 14000 ft
Partly cloudy 18000 ft
Overcast 25000 ft
2019/04/24 19:52 KCVG 241952Z 14010KT 10SM FEW140 SCT180 OVC250 19/10 A2990 RMK AO2 SLP121 T01940100
 
KILN - Wilmington, Ohio, USA
Distance from station: ENE 33mi, 54km
Updated: 04/24/2019 3:54pm
Few Clouds
Few Clouds
 Wind from varies
Wind: varies 5 mph , 7 km/h
Temperature: 63°F , 17°C
Dew Point: 43°F , 6°C
Humidity: 49%
Barometer: 29.92 inHg , 1013.2 hPa
Clouds: Few Clouds
Visibility: 10 miles , 16 km
Cloud details: Few Clouds 5000 ft
Few Clouds 7000 ft
2019/04/24 19:54 KILN 241954Z AUTO VRB04KT 10SM FEW050 FEW070 17/06 A2992 RMK AO2 PRESFR SLP137 T01670056
KDAY - Dayton, Ohio, USA
Distance from station: NNE 43mi, 70km
Updated: 04/24/2019 3:56pm
Overcast
Overcast
 Wind from calm
Wind: Calm
Temperature: 59°F , 15°C
Dew Point: 37°F , 3°C
Humidity: 45%
Barometer: 29.96 inHg , 1014.6 hPa
Clouds: Overcast
Visibility: 10 miles , 16 km
Cloud details: Partly cloudy 10000 ft
Mostly cloudy 15000 ft
Overcast 18000 ft
2019/04/24 19:56 KDAY 241956Z 00000KT 10SM SCT100 BKN150 OVC180 15/03 A2996 RMK AO2 RAB04E22 SLP148 P0000 T01500033
KTZR - Columbus/Bolton, Ohio, USA
Distance from station: ENE 80mi, 128km
Updated: 04/24/2019 2:50pm
Overcast
Overcast
 Wind from WSW
Wind: WSW 6 mph , 9 km/h
Temperature: 57°F , 14°C
Dew Point: 41°F , 5°C
Humidity: 55%
Barometer: 30.00 inHg , 1015.9 hPa
Clouds: Overcast
Visibility: 10 miles , 16 km
Cloud details: Overcast 10000 ft
2019/04/24 18:50 KTZR 241850Z 25005KT 10SM OVC100 14/05 A3000
 
KMGN - Harbor Springs, Michigan, USA
Distance from station: N 417mi, 672km
Updated: 04/24/2019 3:55pm
Partly cloudy
Partly cloudy
 Wind from SW
Wind: SW 5 mph , 7 km/h
Temperature: 45°F , 7°C
Wind Chill: 42°F , 6°C
Dew Point: 30°F , -1°C
Humidity: 57%
Barometer: 29.93 inHg , 1013.5 hPa
Clouds: Partly cloudy
Visibility: 10 miles , 16 km
Cloud details: Partly cloudy 12000 ft
2019/04/24 19:55 KMGN 241955Z AUTO 22004KT 10SM SCT120 07/M01 A2993 RMK AO2 T00761012
KIND - Indianapolis, Indiana, USA
Distance from station: WNW 99mi, 160km
Updated: 04/24/2019 3:54pm
Overcast
Overcast
 Wind from SE
Wind: SE 12 mph , 19 km/h
Temperature: 59°F , 15°C
Dew Point: 43°F , 6°C
Humidity: 55%
Barometer: 29.91 inHg , 1012.9 hPa
Clouds: Overcast
Visibility: 10 miles , 16 km
Cloud details: Few Clouds 2700 ft
Mostly cloudy 5500 ft
Overcast 13000 ft
2019/04/24 19:54 KIND 241954Z 13010KT 10SM FEW027 BKN055 OVC130 15/06 A2991 RMK AO2 SLP129 T01500056
KLEX - Lexington, Kentucky, USA
Distance from station: S 87mi, 141km
Updated: 04/24/2019 3:54pm
Mostly cloudy
Mostly cloudy
 Wind from NW
Wind: NW 5 mph , 7 km/h
Temperature: 75°F , 24°C
Dew Point: 59°F , 15°C
Humidity: 57%
Barometer: 29.91 inHg , 1012.9 hPa
Clouds: Mostly cloudy
Visibility: 10 miles , 16 km
Cloud details: Few Clouds 3400 ft
Mostly cloudy 7000 ft
2019/04/24 19:54 KLEX 241954Z 32004KT 10SM FEW034 BKN070 24/15 A2991 RMK AO2 SLP120 T02440150
 
KSDF - Louisville, Kentucky, USA
Distance from station: SW 104mi, 167km
Updated: 04/24/2019 3:56pm
Mostly cloudy
Mostly cloudy
 Wind from SSE
Wind: SSE 9 mph , 15 km/h
Temperature: 75°F , 24°C
Dew Point: 57°F , 14°C
Humidity: 54%
Barometer: 29.87 inHg , 1011.5 hPa
Clouds: Mostly cloudy
Visibility: 10 miles , 16 km
Cloud details: Few Clouds 4500 ft
Mostly cloudy 7000 ft
Mostly cloudy 25000 ft
2019/04/24 19:56 KSDF 241956Z 15008KT 10SM FEW045 BKN070 BKN250 24/14 A2987 RMK AO2 SLP112 T02440139